Terminal Aerodrome Forecast
Issued by NWS

Home | Current Version | Previous Version | Text Only | Print | Product List | Glossary On
Versions: 1 2 3 4 5 6 7 8 9 10 11 12 13
000
FTUS46 KHNX 200523
TAFFAT
TAF
KFAT 200523Z 2006/2106 VRB04KT P6SM BKN060
     FM200900 VRB03KT 4SM BR BKN050
     FM201400 VRB02KT 2SM BR BKN040
     FM201800 13004KT 4SM HZ BKN050=

USA.gov is the U.S. government's official web portal to all federal, state and local government web resources and services.